Time;durP1;ratioP1;P1;durP2;ratioP2;P2;SDS_P1;SDS_P2;PMS_P1;PMS_P2;Temp;Humidity;BMP_temperature;BMP_pressure;BME280_temperature;BME280_humidity;BME280_pressure;Samples;Min_cycle;Max_cycle;Signal;HPM_P1;HPM_P2
2022/05/25 00:00:18;0.00;0.00;0.62;0.00;0.00;0.62;1.80;1.10;;;28.30;28.00;;;;;;2603463;45;20499;-56
2022/05/25 00:03:04;0.00;0.00;0.62;0.00;0.00;0.62;1.80;1.33;;;28.30;27.90;;;;;;2259526;61;20507;-61
2022/05/25 00:05:49;0.00;0.00;0.62;0.00;0.00;0.62;2.17;1.40;;;28.20;27.80;;;;;;2260162;61;20389;-69
2022/05/25 00:08:36;0.00;0.00;0.62;0.00;0.00;0.62;2.00;1.70;;;28.20;27.10;;;;;;2259828;61;20366;-59
2022/05/25 00:11:21;0.00;0.00;0.62;0.00;0.00;0.62;2.80;1.67;;;28.10;26.90;;;;;;2259205;61;20777;-61
2022/05/25 00:14:06;0.00;0.00;0.62;0.00;0.00;0.62;1.87;1.33;;;28.10;26.60;;;;;;2260352;61;20403;-60
2022/05/25 00:16:50;0.00;0.00;0.62;0.00;0.00;0.62;2.00;1.40;;;28.00;26.40;;;;;;2259201;61;20385;-61
2022/05/25 00:22:42;0.00;0.00;0.62;0.00;0.00;0.62;3.53;1.50;;;27.80;26.40;;;;;;2260097;61;20781;-61
2022/05/25 00:25:33;0.00;0.00;0.62;0.00;0.00;0.62;4.60;2.00;;;27.70;26.30;;;;;;2259546;61;20420;-62
2022/05/25 00:28:17;0.00;0.00;0.62;0.00;0.00;0.62;2.47;1.63;;;27.60;26.20;;;;;;2260518;61;20411;-60
2022/05/25 00:31:02;0.00;0.00;0.62;0.00;0.00;0.62;1.70;1.47;;;27.50;26.00;;;;;;2258991;61;20761;-59
2022/05/25 00:33:46;0.00;0.00;0.62;0.00;0.00;0.62;1.63;1.30;;;27.40;25.90;;;;;;2260002;61;20365;-57
2022/05/25 00:36:31;0.00;0.00;0.62;0.00;0.00;0.62;2.50;1.73;;;27.30;25.80;;;;;;2260209;61;20386;-61
2022/05/25 00:39:15;0.00;0.00;0.62;0.00;0.00;0.62;2.60;1.60;;;27.20;25.70;;;;;;2259078;61;20806;-61
2022/05/25 00:42:05;0.00;0.00;0.62;0.00;0.00;0.62;2.40;1.40;;;27.10;25.70;;;;;;2259752;61;20368;-57
2022/05/25 00:44:50;0.00;0.00;0.62;0.00;0.00;0.62;1.97;1.57;;;27.00;25.70;;;;;;2259691;61;20408;-59
2022/05/25 00:47:36;0.00;0.00;0.62;0.00;0.00;0.62;1.70;1.23;;;26.80;25.70;;;;;;2259706;61;20844;-57
2022/05/25 00:50:24;0.00;0.00;0.62;0.00;0.00;0.62;2.43;1.20;;;26.70;25.80;;;;;;2260073;61;20772;-62
2022/05/25 00:53:09;0.00;0.00;0.62;0.00;0.00;0.62;1.73;1.30;;;26.60;25.90;;;;;;2259707;61;20434;-60
2022/05/25 00:55:55;0.00;0.00;0.62;0.00;0.00;0.62;2.40;1.50;;;26.50;26.40;;;;;;2259846;61;21016;-56
2022/05/25 00:58:47;0.00;0.00;0.62;0.00;0.00;0.62;3.27;1.53;;;26.40;26.00;;;;;;2260128;61;20352;-57
2022/05/25 01:01:32;0.00;0.00;0.62;0.00;0.00;0.62;2.03;1.37;;;26.30;26.00;;;;;;2258845;61;20484;-57
2022/05/25 01:04:17;0.00;0.00;0.62;0.00;0.00;0.62;1.70;1.00;;;26.20;26.10;;;;;;2259814;61;20816;-61
2022/05/25 01:07:25;0.00;0.00;0.62;0.00;0.00;0.62;3.17;1.80;;;26.20;26.30;;;;;;2259963;61;20447;-60
2022/05/25 01:10:32;0.00;0.00;0.62;0.00;0.00;0.62;2.70;1.50;;;26.10;26.40;;;;;;2256309;61;20365;-61
2022/05/25 01:13:28;0.00;0.00;0.62;0.00;0.00;0.62;3.80;1.70;;;26.10;26.40;;;;;;2260221;61;20874;-63
2022/05/25 01:16:25;0.00;0.00;0.62;0.00;0.00;0.62;2.63;1.60;;;26.00;26.10;;;;;;2259213;61;20427;-56
2022/05/25 01:19:29;0.00;0.00;0.62;0.00;0.00;0.62;1.90;1.27;;;25.90;26.00;;;;;;2259781;61;20474;-61
2022/05/25 01:22:34;0.00;0.00;0.62;0.00;0.00;0.62;2.13;1.33;;;25.80;26.00;;;;;;2259712;61;20439;-58
2022/05/25 01:25:54;0.00;0.00;0.62;0.00;0.00;0.62;2.67;1.70;;;25.70;26.00;;;;;;2259583;61;20368;-64
2022/05/25 01:28:59;0.00;0.00;0.62;0.00;0.00;0.62;2.17;1.30;;;25.50;26.10;;;;;;2259971;61;20873;-60
2022/05/25 01:31:53;0.00;0.00;0.62;0.00;0.00;0.62;2.17;1.53;;;25.40;26.20;;;;;;2259685;61;20954;-63
2022/05/25 01:34:44;0.00;0.00;0.62;0.00;0.00;0.62;1.77;1.30;;;25.20;26.30;;;;;;2260052;61;20450;-63
2022/05/25 01:37:37;0.00;0.00;0.62;0.00;0.00;0.62;1.70;1.10;;;25.20;26.30;;;;;;2260456;61;20862;-61
2022/05/25 01:40:28;0.00;0.00;0.62;0.00;0.00;0.62;2.97;1.50;;;25.10;26.30;;;;;;2259968;61;20357;-67
2022/05/25 01:43:18;0.00;0.00;0.62;0.00;0.00;0.62;2.30;1.50;;;25.00;26.40;;;;;;2260722;61;20428;-57
2022/05/25 01:46:09;0.00;0.00;0.62;0.00;0.00;0.62;2.50;1.73;;;24.90;26.50;;;;;;2259948;61;20909;-61
2022/05/25 01:48:56;0.00;0.00;0.62;0.00;0.00;0.62;3.00;1.60;;;24.80;26.60;;;;;;2260399;61;20427;-61
2022/05/25 01:51:46;0.00;0.00;0.62;0.00;0.00;0.62;3.70;1.50;;;24.70;26.50;;;;;;2260474;61;20419;-61
2022/05/25 01:54:41;0.00;0.00;0.62;0.00;0.00;0.62;2.67;1.20;;;24.60;26.60;;;;;;2260101;61;20924;-56
2022/05/25 01:57:31;0.00;0.00;0.62;0.00;0.00;0.62;4.43;1.93;;;24.60;27.20;;;;;;2260710;61;20397;-61
2022/05/25 02:00:30;0.00;0.00;0.62;0.00;0.00;0.62;1.90;1.70;;;24.50;26.60;;;;;;2259569;61;20369;-66
2022/05/25 02:06:47;0.00;0.00;0.62;0.00;0.00;0.62;2.23;1.60;;;24.30;26.50;;;;;;2260722;61;20392;-60
2022/05/25 02:10:02;0.00;0.00;0.62;0.00;0.00;0.62;2.47;1.70;;;24.20;26.60;;;;;;2260015;61;20373;-63
2022/05/25 02:13:12;0.00;0.00;0.62;0.00;0.00;0.62;2.50;1.70;;;24.10;26.70;;;;;;2260778;61;20416;-59
2022/05/25 02:16:16;0.00;0.00;0.62;0.00;0.00;0.62;4.40;2.00;;;24.00;26.70;;;;;;2259837;61;20400;-61
2022/05/25 02:19:12;0.00;0.00;0.62;0.00;0.00;0.62;1.97;1.57;;;24.00;26.80;;;;;;2260492;61;20419;-61
2022/05/25 02:22:09;0.00;0.00;0.62;0.00;0.00;0.62;1.97;1.40;;;23.80;26.80;;;;;;2259898;61;20784;-60
2022/05/25 02:25:01;0.00;0.00;0.62;0.00;0.00;0.62;2.37;1.47;;;23.80;27.00;;;;;;2260293;61;20373;-56
2022/05/25 02:27:50;0.00;0.00;0.62;0.00;0.00;0.62;2.83;1.77;;;23.70;27.10;;;;;;2260885;61;20443;-59
2022/05/25 02:30:40;0.00;0.00;0.62;0.00;0.00;0.62;2.30;1.70;;;23.60;27.20;;;;;;2259502;61;20358;-60
2022/05/25 02:33:30;0.00;0.00;0.62;0.00;0.00;0.62;2.70;1.90;;;23.50;27.30;;;;;;2260104;61;20449;-59
2022/05/25 02:36:15;0.00;0.00;0.62;0.00;0.00;0.62;3.43;1.87;;;23.50;27.40;;;;;;2260067;61;20384;-58
2022/05/25 02:39:05;0.00;0.00;0.62;0.00;0.00;0.62;2.60;1.80;;;23.40;27.40;;;;;;2259410;61;20353;-60
2022/05/25 02:41:52;0.00;0.00;0.62;0.00;0.00;0.62;2.20;1.50;;;23.30;28.10;;;;;;2260266;61;20373;-60
2022/05/25 02:44:38;0.00;0.00;0.62;0.00;0.00;0.62;3.10;1.97;;;23.30;27.60;;;;;;2259580;61;20399;-62
2022/05/25 02:47:22;0.00;0.00;0.62;0.00;0.00;0.62;2.70;1.97;;;23.20;27.60;;;;;;2260210;61;20929;-57
2022/05/25 02:50:08;0.00;0.00;0.62;0.00;0.00;0.62;2.63;2.00;;;23.10;27.70;;;;;;2260074;61;20415;-58
2022/05/25 02:52:53;0.00;0.00;0.62;0.00;0.00;0.62;4.60;2.03;;;23.10;27.80;;;;;;2259826;61;20365;-60
2022/05/25 02:55:39;0.00;0.00;0.62;0.00;0.00;0.62;2.80;2.47;;;23.10;27.90;;;;;;2259722;61;21047;-58
2022/05/25 02:58:24;0.00;0.00;0.62;0.00;0.00;0.62;3.93;1.90;;;23.00;28.00;;;;;;2260412;61;20391;-59
2022/05/25 03:01:08;0.00;0.00;0.62;0.00;0.00;0.62;2.00;1.67;;;23.00;28.10;;;;;;2259571;61;20885;-60
2022/05/25 03:03:53;0.00;0.00;0.62;0.00;0.00;0.62;2.30;1.80;;;22.90;28.20;;;;;;2260625;61;20480;-58
2022/05/25 03:06:38;0.00;0.00;0.62;0.00;0.00;0.62;2.33;1.87;;;22.80;28.20;;;;;;2259856;61;20874;-60
2022/05/25 03:09:22;0.00;0.00;0.62;0.00;0.00;0.62;3.13;2.17;;;22.80;28.30;;;;;;2260289;61;20423;-63
2022/05/25 03:12:09;0.00;0.00;0.62;0.00;0.00;0.62;2.87;1.97;;;22.70;28.50;;;;;;2259994;61;20369;-60
2022/05/25 03:14:53;0.00;0.00;0.62;0.00;0.00;0.62;3.40;2.00;;;22.70;28.50;;;;;;2259776;61;20811;-59
2022/05/25 03:17:38;0.00;0.00;0.62;0.00;0.00;0.62;4.23;2.80;;;22.60;28.40;;;;;;2260069;61;20360;-56
2022/05/25 03:20:23;0.00;0.00;0.62;0.00;0.00;0.62;2.27;2.07;;;22.60;28.40;;;;;;2259973;61;20489;-59
2022/05/25 03:23:07;0.00;0.00;0.62;0.00;0.00;0.62;2.80;2.13;;;22.50;28.30;;;;;;2259588;61;20393;-59
2022/05/25 03:25:52;0.00;0.00;0.62;0.00;0.00;0.62;5.80;2.20;;;22.50;28.50;;;;;;2260427;61;20432;-60
2022/05/25 03:28:38;0.00;0.00;0.62;0.00;0.00;0.62;6.10;2.30;;;22.50;28.60;;;;;;2259694;61;20368;-58
2022/05/25 03:31:23;0.00;0.00;0.62;0.00;0.00;0.62;3.57;2.43;;;22.40;28.50;;;;;;2259433;61;20368;-60
2022/05/25 03:34:08;0.00;0.00;0.62;0.00;0.00;0.62;2.30;2.00;;;22.50;28.70;;;;;;2260354;61;20361;-68
2022/05/25 03:36:56;0.00;0.00;0.62;0.00;0.00;0.62;3.20;2.60;;;22.40;28.70;;;;;;2259399;61;20949;-61
2022/05/25 03:39:40;0.00;0.00;0.62;0.00;0.00;0.62;3.73;2.63;;;22.40;28.70;;;;;;2259462;61;20380;-61
2022/05/25 03:42:25;0.00;0.00;0.62;0.00;0.00;0.62;3.30;2.93;;;22.30;28.80;;;;;;2259669;61;20389;-61
2022/05/25 03:45:13;0.00;0.00;0.62;0.00;0.00;0.62;4.37;2.60;;;22.30;28.80;;;;;;2259757;61;20368;-58
2022/05/25 03:47:57;0.00;0.00;0.62;0.00;0.00;0.62;3.00;2.53;;;22.20;28.80;;;;;;2260173;61;20422;-58
2022/05/25 03:50:43;0.00;0.00;0.62;0.00;0.00;0.62;3.33;2.53;;;22.20;28.80;;;;;;2259672;61;20401;-61
2022/05/25 03:53:27;0.00;0.00;0.62;0.00;0.00;0.62;5.93;3.40;;;22.20;28.90;;;;;;2259537;61;20480;-57
2022/05/25 03:56:12;0.00;0.00;0.62;0.00;0.00;0.62;3.80;3.00;;;22.10;28.90;;;;;;2260046;61;20385;-61
2022/05/25 03:58:56;0.00;0.00;0.62;0.00;0.00;0.62;4.50;2.93;;;22.10;29.00;;;;;;2259192;61;20468;-61
2022/05/25 04:01:42;0.00;0.00;0.62;0.00;0.00;0.62;4.00;2.87;;;22.10;29.10;;;;;;2259567;61;20403;-60
2022/05/25 04:04:27;0.00;0.00;0.62;0.00;0.00;0.62;5.17;3.57;;;22.00;29.10;;;;;;2260110;61;20389;-61
2022/05/25 04:07:12;0.00;0.00;0.62;0.00;0.00;0.62;6.00;3.33;;;22.00;29.20;;;;;;2259514;61;20388;-59
2022/05/25 04:09:57;0.00;0.00;0.62;0.00;0.00;0.62;4.10;3.60;;;22.00;29.20;;;;;;2259701;61;20365;-59
2022/05/25 04:12:43;0.00;0.00;0.62;0.00;0.00;0.62;3.83;3.47;;;21.90;29.20;;;;;;2259611;61;20823;-64
2022/05/25 04:15:30;0.00;0.00;0.62;0.00;0.00;0.62;3.70;3.23;;;21.90;29.30;;;;;;2259657;61;20364;-62
2022/05/25 04:18:16;0.00;0.00;0.62;0.00;0.00;0.62;5.53;4.00;;;21.90;29.40;;;;;;2260395;61;20407;-60
2022/05/25 04:21:01;0.00;0.00;0.62;0.00;0.00;0.62;4.03;3.33;;;21.80;29.40;;;;;;2259035;61;20434;-60
2022/05/25 04:23:45;0.00;0.00;0.62;0.00;0.00;0.62;5.33;3.20;;;21.80;29.50;;;;;;2259668;61;20412;-62
2022/05/25 04:26:30;0.00;0.00;0.62;0.00;0.00;0.62;4.40;3.17;;;21.80;29.50;;;;;;2260229;61;21009;-65
2022/05/25 04:29:15;0.00;0.00;0.62;0.00;0.00;0.62;4.40;3.87;;;21.80;29.60;;;;;;2258944;61;20453;-60
2022/05/25 04:31:59;0.00;0.00;0.62;0.00;0.00;0.62;5.67;3.93;;;21.80;29.70;;;;;;2259579;61;20445;-60
2022/05/25 04:34:45;0.00;0.00;0.62;0.00;0.00;0.62;4.00;3.53;;;21.70;29.70;;;;;;2260141;61;20411;-59
2022/05/25 04:37:48;0.00;0.00;0.62;0.00;0.00;0.62;6.80;3.50;;;21.70;29.70;;;;;;2259602;61;20388;-61
2022/05/25 04:40:36;0.00;0.00;0.62;0.00;0.00;0.62;4.00;3.47;;;21.70;29.80;;;;;;2259804;61;20363;-63
2022/05/25 04:43:23;0.00;0.00;0.62;0.00;0.00;0.62;4.40;3.87;;;21.70;30.30;;;;;;2259346;61;20425;-63
2022/05/25 04:46:11;0.00;0.00;0.62;0.00;0.00;0.62;4.20;3.47;;;21.70;29.90;;;;;;2259766;61;20557;-64
2022/05/25 04:48:57;0.00;0.00;0.62;0.00;0.00;0.62;4.47;3.30;;;21.70;29.90;;;;;;2260218;61;20423;-62
2022/05/25 04:51:43;0.00;0.00;0.62;0.00;0.00;0.62;5.23;3.77;;;21.70;30.00;;;;;;2258802;61;20384;-59
2022/05/25 04:54:28;0.00;0.00;0.62;0.00;0.00;0.62;6.70;4.23;;;21.60;30.00;;;;;;2260250;61;20365;-60
2022/05/25 04:57:23;0.00;0.00;0.62;0.00;0.00;0.62;4.77;3.63;;;21.60;29.90;;;;;;2259827;61;20381;-58
2022/05/25 05:00:09;0.00;0.00;0.62;0.00;0.00;0.62;5.47;4.13;;;21.60;30.00;;;;;;2259644;61;20446;-58
2022/05/25 05:02:53;0.00;0.00;0.62;0.00;0.00;0.62;4.27;3.40;;;21.60;30.00;;;;;;2260306;61;20431;-59
2022/05/25 05:05:38;0.00;0.00;0.62;0.00;0.00;0.62;4.83;3.57;;;21.60;30.00;;;;;;2259941;61;20384;-61
2022/05/25 05:08:25;0.00;0.00;0.62;0.00;0.00;0.62;4.83;4.33;;;21.60;30.00;;;;;;2260558;61;20365;-63
2022/05/25 05:11:14;0.00;0.00;0.62;0.00;0.00;0.62;4.20;3.80;;;21.60;30.10;;;;;;2260496;61;20369;-60
2022/05/25 05:14:00;0.00;0.00;0.62;0.00;0.00;0.62;3.70;3.37;;;21.60;30.20;;;;;;2259845;61;20411;-62
2022/05/25 05:16:45;0.00;0.00;0.62;0.00;0.00;0.62;4.13;3.70;;;21.60;30.20;;;;;;2260722;61;20457;-60
2022/05/25 05:19:40;0.00;0.00;0.62;0.00;0.00;0.62;5.93;4.27;;;21.60;30.20;;;;;;2259919;61;20816;-58
2022/05/25 05:22:31;0.00;0.00;0.62;0.00;0.00;0.62;5.17;4.30;;;21.60;30.40;;;;;;2259605;61;20427;-58
2022/05/25 05:25:17;0.00;0.00;0.62;0.00;0.00;0.62;5.10;4.47;;;21.50;30.30;;;;;;2260719;61;20428;-59
2022/05/25 05:28:07;0.00;0.00;0.62;0.00;0.00;0.62;6.87;4.17;;;21.50;30.30;;;;;;2260007;61;20396;-61
2022/05/25 05:30:55;0.00;0.00;0.62;0.00;0.00;0.62;4.57;3.87;;;21.50;30.40;;;;;;2259883;61;20381;-63
2022/05/25 05:33:40;0.00;0.00;0.62;0.00;0.00;0.62;4.30;3.83;;;21.50;30.50;;;;;;2260975;61;20357;-61
2022/05/25 05:36:27;0.00;0.00;0.62;0.00;0.00;0.62;5.00;3.90;;;21.50;30.60;;;;;;2259384;61;20381;-62
2022/05/25 05:39:13;0.00;0.00;0.62;0.00;0.00;0.62;7.00;4.20;;;21.50;30.60;;;;;;2260855;61;20411;-62
2022/05/25 05:42:03;0.00;0.00;0.62;0.00;0.00;0.62;4.80;4.30;;;21.50;30.60;;;;;;2259818;61;20441;-67
2022/05/25 05:44:52;0.00;0.00;0.62;0.00;0.00;0.62;4.63;3.90;;;21.60;30.60;;;;;;2260442;61;20369;-61
2022/05/25 05:47:41;0.00;0.00;0.62;0.00;0.00;0.62;5.83;4.23;;;21.60;30.60;;;;;;2260948;61;20392;-65
2022/05/25 05:50:26;0.00;0.00;0.62;0.00;0.00;0.62;4.40;3.70;;;21.60;30.50;;;;;;2259799;61;20369;-66
2022/05/25 05:53:13;0.00;0.00;0.62;0.00;0.00;0.62;4.80;3.23;;;21.60;30.60;;;;;;2257127;61;20357;-66
2022/05/25 05:55:58;0.00;0.00;0.62;0.00;0.00;0.62;3.33;2.70;;;21.70;30.70;;;;;;2260867;61;20431;-65
2022/05/25 05:58:44;0.00;0.00;0.62;0.00;0.00;0.62;3.60;2.53;;;21.70;30.80;;;;;;2260078;61;20766;-68
2022/05/25 06:01:29;0.00;0.00;0.62;0.00;0.00;0.62;3.70;2.63;;;21.70;30.80;;;;;;2260008;61;21001;-69
2022/05/25 06:04:14;0.00;0.00;0.62;0.00;0.00;0.62;4.40;3.00;;;21.80;30.90;;;;;;2260419;61;20451;-59
2022/05/25 06:06:59;0.00;0.00;0.62;0.00;0.00;0.62;2.43;2.23;;;21.80;30.90;;;;;;2260314;61;20400;-63
2022/05/25 06:09:43;0.00;0.00;0.62;0.00;0.00;0.62;3.47;2.20;;;21.90;30.90;;;;;;2260240;61;20365;-68
2022/05/25 06:12:29;0.00;0.00;0.62;0.00;0.00;0.62;4.03;2.50;;;21.90;30.90;;;;;;2259544;61;20348;-67
2022/05/25 06:21:22;0.00;0.00;0.62;0.00;0.00;0.62;2.80;2.50;;;22.10;31.00;;;;;;2259533;61;20372;-66
2022/05/25 06:24:08;0.00;0.00;0.62;0.00;0.00;0.62;2.50;1.67;;;22.20;31.00;;;;;;2260751;61;20436;-60
2022/05/25 06:26:52;0.00;0.00;0.62;0.00;0.00;0.62;3.90;2.40;;;22.20;31.00;;;;;;2259718;61;20413;-67
2022/05/25 06:29:38;0.00;0.00;0.62;0.00;0.00;0.62;3.63;2.70;;;22.30;31.00;;;;;;2260626;61;20396;-67
2022/05/25 06:32:25;0.00;0.00;0.62;0.00;0.00;0.62;3.90;2.70;;;22.30;31.00;;;;;;2260665;61;20384;-61
2022/05/25 06:35:10;0.00;0.00;0.62;0.00;0.00;0.62;3.57;1.90;;;22.40;31.00;;;;;;2260043;61;20898;-64
2022/05/25 06:37:55;0.00;0.00;0.62;0.00;0.00;0.62;4.50;2.40;;;22.40;31.00;;;;;;2260640;61;20424;-67
2022/05/25 06:40:40;0.00;0.00;0.62;0.00;0.00;0.62;2.47;1.90;;;22.40;30.90;;;;;;2259794;61;20467;-66
2022/05/25 06:43:24;0.00;0.00;0.62;0.00;0.00;0.62;3.57;2.10;;;22.50;30.90;;;;;;2259903;61;20377;-65
2022/05/25 06:46:11;0.00;0.00;0.62;0.00;0.00;0.62;3.37;2.57;;;22.60;30.90;;;;;;2260772;61;20470;-65
2022/05/25 06:48:58;0.00;0.00;0.62;0.00;0.00;0.62;3.30;2.50;;;22.70;31.00;;;;;;2260125;61;20865;-62
2022/05/25 06:51:43;0.00;0.00;0.62;0.00;0.00;0.62;4.43;2.57;;;22.70;31.00;;;;;;2259975;61;20511;-65
2022/05/25 06:54:28;0.00;0.00;0.62;0.00;0.00;0.62;3.63;2.33;;;22.80;31.00;;;;;;2260744;61;20376;-67
2022/05/25 06:57:12;0.00;0.00;0.62;0.00;0.00;0.62;3.10;1.80;;;22.80;30.90;;;;;;2259244;61;20427;-68
2022/05/25 06:59:58;0.00;0.00;0.62;0.00;0.00;0.62;2.93;2.47;;;22.80;30.80;;;;;;2260344;61;20356;-60
2022/05/25 07:02:42;0.00;0.00;0.62;0.00;0.00;0.62;2.57;1.93;;;22.90;30.80;;;;;;2260438;61;20419;-64
2022/05/25 07:05:28;0.00;0.00;0.62;0.00;0.00;0.62;2.53;1.90;;;22.90;30.80;;;;;;2259904;61;20883;-62
2022/05/25 07:08:13;0.00;0.00;0.62;0.00;0.00;0.62;3.63;2.30;;;23.00;30.80;;;;;;2260724;61;20412;-61
2022/05/25 07:10:58;0.00;0.00;0.62;0.00;0.00;0.62;5.40;2.40;;;23.00;30.80;;;;;;2259719;61;20361;-62
2022/05/25 07:13:43;0.00;0.00;0.62;0.00;0.00;0.62;3.90;2.13;;;23.10;30.70;;;;;;2260422;61;20357;-61
2022/05/25 07:16:28;0.00;0.00;0.62;0.00;0.00;0.62;3.67;2.00;;;23.00;30.50;;;;;;2260518;61;20380;-56
2022/05/25 07:19:13;0.00;0.00;0.62;0.00;0.00;0.62;4.20;1.83;;;23.10;30.50;;;;;;2259931;61;20447;-59
2022/05/25 07:22:00;0.00;0.00;0.62;0.00;0.00;0.62;2.20;1.63;;;23.10;30.40;;;;;;2259924;61;20384;-56
2022/05/25 07:24:44;0.00;0.00;0.62;0.00;0.00;0.62;2.07;1.37;;;23.20;30.50;;;;;;2259994;61;20544;-60
2022/05/25 07:27:29;0.00;0.00;0.62;0.00;0.00;0.62;3.07;1.50;;;23.20;30.50;;;;;;2259633;61;20954;-67
2022/05/25 07:30:16;0.00;0.00;0.62;0.00;0.00;0.62;1.93;1.43;;;23.20;30.40;;;;;;2260314;61;20367;-64
2022/05/25 07:33:00;0.00;0.00;0.62;0.00;0.00;0.62;1.90;1.50;;;23.30;30.40;;;;;;2259794;61;20373;-63
2022/05/25 07:35:45;0.00;0.00;0.62;0.00;0.00;0.62;1.93;1.30;;;23.30;30.40;;;;;;2260189;61;20459;-66
2022/05/25 07:38:32;0.00;0.00;0.62;0.00;0.00;0.62;2.07;1.63;;;23.40;30.40;;;;;;2257317;61;20808;-65
2022/05/25 07:41:18;0.00;0.00;0.62;0.00;0.00;0.62;2.37;1.40;;;23.40;30.30;;;;;;2259200;61;20965;-61
2022/05/25 07:44:04;0.00;0.00;0.62;0.00;0.00;0.62;2.77;1.20;;;23.40;30.20;;;;;;2259904;61;20409;-63
2022/05/25 07:46:49;0.00;0.00;0.62;0.00;0.00;0.62;2.67;1.10;;;23.50;30.30;;;;;;2260443;61;20392;-62
2022/05/25 07:49:34;0.00;0.00;0.62;0.00;0.00;0.62;3.43;1.60;;;23.50;30.20;;;;;;2257935;61;20459;-62
2022/05/25 07:52:19;0.00;0.00;0.62;0.00;0.00;0.62;1.80;1.50;;;23.50;30.20;;;;;;2256253;61;20393;-67
2022/05/25 07:55:08;0.00;0.00;0.62;0.00;0.00;0.62;2.80;1.50;;;23.60;30.30;;;;;;2255582;61;20412;-67
2022/05/25 07:57:53;0.00;0.00;0.62;0.00;0.00;0.62;3.00;1.37;;;23.60;30.30;;;;;;2256195;61;20489;-61
2022/05/25 08:00:37;0.00;0.00;0.62;0.00;0.00;0.62;4.93;1.70;;;23.60;30.30;;;;;;2255951;61;20409;-66
2022/05/25 08:06:27;0.00;0.00;0.62;0.00;0.00;0.62;2.93;1.67;;;23.70;30.30;;;;;;2256102;61;20816;-62
2022/05/25 08:09:11;0.00;0.00;0.62;0.00;0.00;0.62;2.90;1.40;;;23.70;30.20;;;;;;2256493;61;20393;-61
2022/05/25 08:11:58;0.00;0.00;0.62;0.00;0.00;0.62;1.73;1.30;;;23.80;30.20;;;;;;2254922;61;20366;-63
2022/05/25 08:14:43;0.00;0.00;0.62;0.00;0.00;0.62;2.97;2.00;;;23.80;30.20;;;;;;2256289;61;20882;-63
2022/05/25 08:17:28;0.00;0.00;0.62;0.00;0.00;0.62;3.60;1.60;;;23.90;30.20;;;;;;2256984;61;20385;-63
2022/05/25 08:20:13;0.00;0.00;0.62;0.00;0.00;0.62;3.17;1.60;;;23.90;30.10;;;;;;2256912;61;20446;-64
2022/05/25 08:22:57;0.00;0.00;0.62;0.00;0.00;0.62;1.83;1.43;;;23.90;30.00;;;;;;2257824;61;20873;-66
2022/05/25 08:25:43;0.00;0.00;0.62;0.00;0.00;0.62;1.90;1.50;;;24.00;30.00;;;;;;2257877;61;20462;-65
2022/05/25 08:28:29;0.00;0.00;0.62;0.00;0.00;0.62;5.87;1.83;;;24.00;29.70;;;;;;2257027;61;20945;-64
2022/05/25 08:31:14;0.00;0.00;0.62;0.00;0.00;0.62;2.20;1.70;;;24.00;29.40;;;;;;2256186;61;20374;-65
2022/05/25 08:33:58;0.00;0.00;0.62;0.00;0.00;0.62;3.63;2.23;;;24.10;29.50;;;;;;2255913;61;20883;-65
2022/05/25 08:36:43;0.00;0.00;0.62;0.00;0.00;0.62;3.13;1.60;;;24.10;29.40;;;;;;2256149;61;20378;-65
2022/05/25 08:39:28;0.00;0.00;0.62;0.00;0.00;0.62;2.13;1.53;;;24.10;29.30;;;;;;2256829;61;20389;-65
2022/05/25 08:42:17;0.00;0.00;0.62;0.00;0.00;0.62;3.00;1.33;;;24.10;29.20;;;;;;2254925;61;20405;-65
2022/05/25 08:45:04;0.00;0.00;0.62;0.00;0.00;0.62;4.20;1.60;;;24.20;29.10;;;;;;2323611;58;20366;-64
2022/05/25 08:47:55;0.00;0.00;0.62;0.00;0.00;0.62;3.37;2.30;;;24.20;29.00;;;;;;2295133;61;20960;-63
2022/05/25 08:50:43;0.00;0.00;0.62;0.00;0.00;0.62;2.33;1.37;;;24.20;28.90;;;;;;2262401;61;20404;-62
2022/05/25 08:53:28;0.00;0.00;0.62;0.00;0.00;0.62;1.80;1.40;;;24.20;28.80;;;;;;2263270;61;20878;-58
2022/05/25 08:56:24;0.00;0.00;0.62;0.00;0.00;0.62;2.90;1.40;;;24.20;28.70;;;;;;2261679;61;20435;-64
2022/05/25 08:59:17;0.00;0.00;0.62;0.00;0.00;0.62;2.10;1.23;;;24.20;28.70;;;;;;2261167;61;20365;-65
2022/05/25 09:02:14;0.00;0.00;0.62;0.00;0.00;0.62;2.83;1.70;;;24.20;28.70;;;;;;2260741;61;20427;-64
2022/05/25 09:05:07;0.00;0.00;0.62;0.00;0.00;0.62;3.53;1.20;;;24.20;28.80;;;;;;2260309;61;20443;-62
2022/05/25 09:08:03;0.00;0.00;0.62;0.00;0.00;0.62;1.60;1.20;;;24.30;28.90;;;;;;2261460;61;20411;-61
2022/05/25 09:10:53;0.00;0.00;0.62;0.00;0.00;0.62;3.20;1.27;;;24.30;29.00;;;;;;2259838;61;20411;-57
2022/05/25 09:13:46;0.00;0.00;0.62;0.00;0.00;0.62;5.57;3.13;;;24.30;29.00;;;;;;2261285;61;20577;-60
2022/05/25 09:16:36;0.00;0.00;0.62;0.00;0.00;0.62;2.57;1.00;;;24.30;29.00;;;;;;2260638;61;20389;-60
2022/05/25 09:19:26;0.00;0.00;0.62;0.00;0.00;0.62;1.93;1.30;;;24.40;29.00;;;;;;2259674;61;20396;-62
2022/05/25 09:22:16;0.00;0.00;0.62;0.00;0.00;0.62;1.70;1.17;;;24.40;29.10;;;;;;2259899;61;20797;-59
2022/05/25 09:25:04;0.00;0.00;0.62;0.00;0.00;0.62;1.40;1.00;;;24.50;29.10;;;;;;2259176;61;20436;-65
2022/05/25 09:27:58;0.00;0.00;0.62;0.00;0.00;0.62;3.10;1.40;;;24.50;29.10;;;;;;2259766;61;20366;-61
2022/05/25 09:30:48;0.00;0.00;0.62;0.00;0.00;0.62;6.03;1.23;;;24.50;29.00;;;;;;2259609;61;20846;-60
2022/05/25 09:33:38;0.00;0.00;0.62;0.00;0.00;0.62;2.07;1.30;;;24.60;29.10;;;;;;2259326;61;20361;-60
2022/05/25 09:36:29;0.00;0.00;0.62;0.00;0.00;0.62;1.57;1.13;;;24.60;29.00;;;;;;2259995;61;20385;-58
2022/05/25 09:39:21;0.00;0.00;0.62;0.00;0.00;0.62;1.83;1.10;;;24.60;29.00;;;;;;2259353;61;20396;-60
2022/05/25 09:42:06;0.00;0.00;0.62;0.00;0.00;0.62;2.80;1.53;;;24.70;29.00;;;;;;2259515;61;20434;-61
2022/05/25 09:44:54;0.00;0.00;0.62;0.00;0.00;0.62;3.60;1.40;;;24.70;29.00;;;;;;2259962;61;20393;-61
2022/05/25 09:47:42;0.00;0.00;0.62;0.00;0.00;0.62;1.50;0.80;;;24.80;29.10;;;;;;2259288;61;20361;-62
2022/05/25 09:50:34;0.00;0.00;0.62;0.00;0.00;0.62;1.83;1.30;;;24.80;29.10;;;;;;2258883;61;20383;-56
2022/05/25 09:53:24;0.00;0.00;0.62;0.00;0.00;0.62;2.20;1.17;;;24.90;29.20;;;;;;2259250;61;20393;-64
2022/05/25 09:56:17;0.00;0.00;0.62;0.00;0.00;0.62;1.90;1.30;;;24.80;29.00;;;;;;2259433;61;20388;-59
2022/05/25 09:59:06;0.00;0.00;0.62;0.00;0.00;0.62;1.70;1.27;;;24.90;29.00;;;;;;2259955;61;20942;-63
2022/05/25 10:01:52;0.00;0.00;0.62;0.00;0.00;0.62;1.77;0.93;;;25.00;29.10;;;;;;2258944;61;20913;-63
2022/05/25 10:04:52;0.00;0.00;0.62;0.00;0.00;0.62;1.40;0.90;;;25.00;29.00;;;;;;2259574;61;20928;-61
2022/05/25 10:07:48;0.00;0.00;0.62;0.00;0.00;0.62;1.40;1.00;;;25.00;29.00;;;;;;2260058;61;21201;-59
2022/05/25 10:10:44;0.00;0.00;0.62;0.00;0.00;0.62;1.50;1.00;;;25.00;28.90;;;;;;2259256;61;20944;-61
2022/05/25 10:13:37;0.00;0.00;0.62;0.00;0.00;0.62;1.93;1.00;;;25.10;29.00;;;;;;2259941;61;20365;-63
2022/05/25 10:16:26;0.00;0.00;0.62;0.00;0.00;0.62;1.40;1.00;;;25.10;28.90;;;;;;2259045;61;20400;-60
2022/05/25 10:19:14;0.00;0.00;0.62;0.00;0.00;0.62;1.60;1.00;;;25.10;28.90;;;;;;2259964;61;20369;-59
2022/05/25 10:22:00;0.00;0.00;0.62;0.00;0.00;0.62;2.33;1.30;;;25.20;28.90;;;;;;2259420;61;20369;-60
2022/05/25 10:24:45;0.00;0.00;0.62;0.00;0.00;0.62;2.43;1.50;;;25.20;28.90;;;;;;2259322;61;20841;-59
2022/05/25 10:27:38;0.00;0.00;0.62;0.00;0.00;0.62;2.00;1.10;;;25.20;28.90;;;;;;2259947;61;20408;-58
2022/05/25 10:36:56;0.00;0.00;0.62;0.00;0.00;0.62;1.40;0.80;;;25.40;28.90;;;;;;2259744;61;20455;-60
2022/05/25 10:39:48;0.00;0.00;0.62;0.00;0.00;0.62;1.90;0.90;;;25.40;28.90;;;;;;2259539;61;20373;-63
2022/05/25 10:42:47;0.00;0.00;0.62;0.00;0.00;0.62;1.77;1.30;;;25.40;28.90;;;;;;2259698;61;21000;-59
2022/05/25 10:45:39;0.00;0.00;0.62;0.00;0.00;0.62;2.10;1.20;;;25.40;28.90;;;;;;2259651;61;20389;-58
2022/05/25 10:48:41;0.00;0.00;0.62;0.00;0.00;0.62;1.60;1.00;;;25.50;28.90;;;;;;2259463;61;20419;-60
2022/05/25 10:51:33;0.00;0.00;0.62;0.00;0.00;0.62;1.77;0.97;;;25.50;28.90;;;;;;2258728;61;20760;-61
2022/05/25 10:58:06;0.00;0.00;0.62;0.00;0.00;0.62;1.40;1.00;;;25.50;28.80;;;;;;2259473;61;20400;-58
2022/05/25 11:01:10;0.00;0.00;0.62;0.00;0.00;0.62;1.50;1.00;;;25.60;28.80;;;;;;2258805;61;20905;-61
2022/05/25 11:04:16;0.00;0.00;0.62;0.00;0.00;0.62;1.50;1.00;;;25.60;28.80;;;;;;2259202;61;20462;-61
2022/05/25 11:07:27;0.00;0.00;0.62;0.00;0.00;0.62;1.40;0.97;;;25.70;28.80;;;;;;2259755;61;20693;-61
2022/05/25 11:10:37;0.00;0.00;0.62;0.00;0.00;0.62;1.83;0.90;;;25.70;28.90;;;;;;2259227;61;20369;-60
2022/05/25 11:13:59;0.00;0.00;0.62;0.00;0.00;0.62;1.47;0.90;;;25.80;28.80;;;;;;2256348;61;20790;-61
2022/05/25 11:16:55;0.00;0.00;0.62;0.00;0.00;0.62;1.50;0.97;;;25.80;28.80;;;;;;2490323;53;20385;-61
2022/05/25 11:20:13;0.00;0.00;0.62;0.00;0.00;0.62;1.40;1.03;;;25.80;28.70;;;;;;2255701;61;20361;-60
2022/05/25 11:23:49;0.00;0.00;0.62;0.00;0.00;0.62;1.40;0.90;;;25.80;28.80;;;;;;2254951;61;20397;-61
2022/05/25 11:27:10;0.00;0.00;0.62;0.00;0.00;0.62;1.50;0.90;;;25.90;28.80;;;;;;2255333;61;20452;-62
2022/05/25 11:30:05;0.00;0.00;0.62;0.00;0.00;0.62;1.30;0.83;;;25.90;28.80;;;;;;2256190;61;20457;-60
2022/05/25 11:33:19;0.00;0.00;0.62;0.00;0.00;0.62;1.93;0.97;;;25.90;28.80;;;;;;2255195;61;20446;-60